Strona główna
METAR-TAF:

METAR-TAF

Lotnisko :

Port lotniczy Cataratas del Iguazú

Iguaçu, Argentyna

Szerokość geograficzna: 25-44S, Długość geograficzna: 054-28W, wysokość: 270 m

Aktualna obserwacja pogody

Raport powstał 1 godzina i 4 minut temu, godzina 06:00 UTC
Wiatr 4 kt od południe
Temperatura 19°C
Wilgotność 94%
Ciśnienie 1015 hPa
Widzialność 10 km lub więcej
Brak chmur poniżej 1500 m i brak chmur cumulonimbus

METAR: SARI 190600Z 18004KT CAVOK 19/18 Q1015

czas: 04:04 (07:04 UTC)

Prognoza

Raport powstał 2 godziny i 4 minut temu, godzina 05:00 UTC
Prognoza ważna od 19 godzina 06 UTC do 20 godzina 06 UTC
Wiatr 5 kt od południe
Widzialność 10 km lub więcej
Brak chmur poniżej 1500 m i brak chmur cumulonimbus
Prawdopodobieństwo 30%
od 19 godzina 08 UTC do 19 godzina 11 UTC
Widzialność: 3000 m
zamglenie

TAF: SARI 190500Z 1906/2006 18005KT CAVOK TX26/1918Z TN16/1909Z PROB30 1908/1911 3000 BR NSC

Obserwacja i prognoza pogody dla ponad 4000 lotnisk (raport METAR i TAF).

Dostępne stacje oznaczono żółtymi i czerwonymi punktami na mapie.

Najedź kursorem aby zobaczyć nazwę stacji.

Kliknij aby zobaczyć obserwacje i prognozy pogody.

Aby zmienić mapę: kliknij na zielony przycisk z czarnym krzyżykiem, aby powiększyć; na zielony przycisk z myślnikiem, aby pomniejszyć; na zielone strzałki, aby przejść do map sąsiednich.


METAR-TAF: